sensor_id;sensor_type;location;lat;lon;timestamp;temperature;humidity
5870;DHT22;2961;47.702;9.410;2022-09-21T00:01:12;9.90;99.90
5870;DHT22;2961;47.702;9.410;2022-09-21T00:03:40;9.90;99.90
5870;DHT22;2961;47.702;9.410;2022-09-21T00:06:09;9.90;99.90
5870;DHT22;2961;47.702;9.410;2022-09-21T00:08:37;10.00;99.90
5870;DHT22;2961;47.702;9.410;2022-09-21T00:11:05;9.90;99.90
5870;DHT22;2961;47.702;9.410;2022-09-21T00:13:33;10.00;99.90
5870;DHT22;2961;47.702;9.410;2022-09-21T00:16:05;10.00;99.90
5870;DHT22;2961;47.702;9.410;2022-09-21T00:18:32;10.10;99.90
5870;DHT22;2961;47.702;9.410;2022-09-21T00:21:00;10.10;99.90
5870;DHT22;2961;47.702;9.410;2022-09-21T00:23:27;10.10;99.90
5870;DHT22;2961;47.702;9.410;2022-09-21T00:26:08;10.00;99.90
5870;DHT22;2961;47.702;9.410;2022-09-21T00:28:36;10.00;99.90
5870;DHT22;2961;47.702;9.410;2022-09-21T00:31:06;9.90;99.90
5870;DHT22;2961;47.702;9.410;2022-09-21T00:33:34;9.90;99.90
5870;DHT22;2961;47.702;9.410;2022-09-21T00:36:02;9.90;99.90
5870;DHT22;2961;47.702;9.410;2022-09-21T00:38:29;10.00;99.90
5870;DHT22;2961;47.702;9.410;2022-09-21T00:40:56;9.90;99.90
5870;DHT22;2961;47.702;9.410;2022-09-21T00:43:24;9.90;99.90
5870;DHT22;2961;47.702;9.410;2022-09-21T00:45:56;9.90;99.90
5870;DHT22;2961;47.702;9.410;2022-09-21T00:48:25;9.90;99.90
5870;DHT22;2961;47.702;9.410;2022-09-21T00:50:54;9.90;99.90
5870;DHT22;2961;47.702;9.410;2022-09-21T00:53:23;9.80;99.90
5870;DHT22;2961;47.702;9.410;2022-09-21T00:55:52;9.80;99.90
5870;DHT22;2961;47.702;9.410;2022-09-21T00:58:24;9.70;99.90
5870;DHT22;2961;47.702;9.410;2022-09-21T01:00:53;9.60;99.90
5870;DHT22;2961;47.702;9.410;2022-09-21T01:03:19;9.60;99.90
5870;DHT22;2961;47.702;9.410;2022-09-21T01:05:46;9.50;99.90
5870;DHT22;2961;47.702;9.410;2022-09-21T01:08:14;9.40;99.90
5870;DHT22;2961;47.702;9.410;2022-09-21T01:11:00;9.30;99.90
5870;DHT22;2961;47.702;9.410;2022-09-21T01:13:42;9.20;99.90
5870;DHT22;2961;47.702;9.410;2022-09-21T01:16:15;9.20;99.90
5870;DHT22;2961;47.702;9.410;2022-09-21T01:18:47;9.20;99.90
5870;DHT22;2961;47.702;9.410;2022-09-21T01:21:21;9.20;99.90
5870;DHT22;2961;47.702;9.410;2022-09-21T01:27:26;9.00;99.90
5870;DHT22;2961;47.702;9.410;2022-09-21T01:29:59;9.00;99.90
5870;DHT22;2961;47.702;9.410;2022-09-21T01:32:30;9.00;99.90
5870;DHT22;2961;47.702;9.410;2022-09-21T01:35:00;9.00;99.90
5870;DHT22;2961;47.702;9.410;2022-09-21T01:37:31;8.90;99.90
5870;DHT22;2961;47.702;9.410;2022-09-21T01:40:07;8.80;99.90
5870;DHT22;2961;47.702;9.410;2022-09-21T01:42:37;8.80;99.90
5870;DHT22;2961;47.702;9.410;2022-09-21T01:45:08;8.80;99.90
5870;DHT22;2961;47.702;9.410;2022-09-21T01:47:38;8.80;99.90
5870;DHT22;2961;47.702;9.410;2022-09-21T01:50:08;8.80;99.90
5870;DHT22;2961;47.702;9.410;2022-09-21T01:52:41;8.80;99.90
5870;DHT22;2961;47.702;9.410;2022-09-21T01:55:11;8.70;99.90
5870;DHT22;2961;47.702;9.410;2022-09-21T01:57:43;8.80;99.90
5870;DHT22;2961;47.702;9.410;2022-09-21T02:00:15;8.70;99.90
5870;DHT22;2961;47.702;9.410;2022-09-21T02:02:48;8.80;99.90
5870;DHT22;2961;47.702;9.410;2022-09-21T02:05:19;8.70;99.90
5870;DHT22;2961;47.702;9.410;2022-09-21T02:07:49;8.70;99.90
5870;DHT22;2961;47.702;9.410;2022-09-21T02:10:19;8.80;99.90
5870;DHT22;2961;47.702;9.410;2022-09-21T02:12:48;8.80;99.90
5870;DHT22;2961;47.702;9.410;2022-09-21T02:15:23;8.80;99.90
5870;DHT22;2961;47.702;9.410;2022-09-21T02:18:01;8.80;99.90
5870;DHT22;2961;47.702;9.410;2022-09-21T02:20:32;8.80;99.90
5870;DHT22;2961;47.702;9.410;2022-09-21T02:23:23;8.80;99.90
5870;DHT22;2961;47.702;9.410;2022-09-21T02:25:56;8.80;99.90
5870;DHT22;2961;47.702;9.410;2022-09-21T02:28:32;8.70;99.90
5870;DHT22;2961;47.702;9.410;2022-09-21T02:31:09;8.70;99.90
5870;DHT22;2961;47.702;9.410;2022-09-21T02:33:43;8.70;99.90
5870;DHT22;2961;47.702;9.410;2022-09-21T02:36:19;8.80;99.90
5870;DHT22;2961;47.702;9.410;2022-09-21T02:38:51;8.80;99.90
5870;DHT22;2961;47.702;9.410;2022-09-21T02:41:23;8.70;99.90
5870;DHT22;2961;47.702;9.410;2022-09-21T02:43:58;8.70;99.90
5870;DHT22;2961;47.702;9.410;2022-09-21T02:46:31;8.80;99.90
5870;DHT22;2961;47.702;9.410;2022-09-21T02:49:03;8.80;99.90
5870;DHT22;2961;47.702;9.410;2022-09-21T02:51:36;8.70;99.90
5870;DHT22;2961;47.702;9.410;2022-09-21T02:54:06;8.70;99.90
5870;DHT22;2961;47.702;9.410;2022-09-21T02:56:35;8.70;99.90
5870;DHT22;2961;47.702;9.410;2022-09-21T02:59:04;8.70;99.90
5870;DHT22;2961;47.702;9.410;2022-09-21T03:01:33;8.70;99.90
5870;DHT22;2961;47.702;9.410;2022-09-21T03:04:00;8.60;99.90
5870;DHT22;2961;47.702;9.410;2022-09-21T03:06:27;8.50;99.90
5870;DHT22;2961;47.702;9.410;2022-09-21T03:08:54;8.60;99.90
5870;DHT22;2961;47.702;9.410;2022-09-21T03:11:23;8.50;99.90
5870;DHT22;2961;47.702;9.410;2022-09-21T03:13:50;8.50;99.90
5870;DHT22;2961;47.702;9.410;2022-09-21T03:16:17;8.60;99.90
5870;DHT22;2961;47.702;9.410;2022-09-21T03:18:45;8.60;99.90
5870;DHT22;2961;47.702;9.410;2022-09-21T03:21:12;8.60;99.90
5870;DHT22;2961;47.702;9.410;2022-09-21T03:23:39;8.60;99.90
5870;DHT22;2961;47.702;9.410;2022-09-21T03:26:06;8.60;99.90
5870;DHT22;2961;47.702;9.410;2022-09-21T03:28:33;8.60;99.90
5870;DHT22;2961;47.702;9.410;2022-09-21T03:31:00;8.60;99.90
5870;DHT22;2961;47.702;9.410;2022-09-21T03:33:27;8.60;99.90
5870;DHT22;2961;47.702;9.410;2022-09-21T03:35:55;8.60;99.90
5870;DHT22;2961;47.702;9.410;2022-09-21T03:38:21;8.50;99.90
5870;DHT22;2961;47.702;9.410;2022-09-21T03:40:49;8.60;99.90
5870;DHT22;2961;47.702;9.410;2022-09-21T03:43:17;8.60;99.90
5870;DHT22;2961;47.702;9.410;2022-09-21T03:45:44;8.70;99.90
5870;DHT22;2961;47.702;9.410;2022-09-21T03:48:12;8.70;99.90
5870;DHT22;2961;47.702;9.410;2022-09-21T03:50:40;8.70;99.90
5870;DHT22;2961;47.702;9.410;2022-09-21T03:53:08;8.70;99.90
5870;DHT22;2961;47.702;9.410;2022-09-21T03:55:35;8.60;99.90
5870;DHT22;2961;47.702;9.410;2022-09-21T03:58:03;8.70;99.90
5870;DHT22;2961;47.702;9.410;2022-09-21T04:00:29;8.60;99.90
5870;DHT22;2961;47.702;9.410;2022-09-21T04:02:56;8.60;99.90
5870;DHT22;2961;47.702;9.410;2022-09-21T04:05:23;8.60;99.90
5870;DHT22;2961;47.702;9.410;2022-09-21T04:07:50;8.60;99.90
5870;DHT22;2961;47.702;9.410;2022-09-21T04:10:19;8.50;99.90
5870;DHT22;2961;47.702;9.410;2022-09-21T04:12:55;8.50;99.90
5870;DHT22;2961;47.702;9.410;2022-09-21T04:15:22;8.50;99.90
5870;DHT22;2961;47.702;9.410;2022-09-21T04:17:50;8.40;99.90
5870;DHT22;2961;47.702;9.410;2022-09-21T04:20:18;8.20;99.90
5870;DHT22;2961;47.702;9.410;2022-09-21T04:22:46;8.20;99.90
5870;DHT22;2961;47.702;9.410;2022-09-21T04:25:13;8.20;99.90
5870;DHT22;2961;47.702;9.410;2022-09-21T04:27:41;8.10;99.90
5870;DHT22;2961;47.702;9.410;2022-09-21T04:30:29;8.10;99.90
5870;DHT22;2961;47.702;9.410;2022-09-21T04:32:57;8.00;99.90
5870;DHT22;2961;47.702;9.410;2022-09-21T04:35:24;7.90;99.90
5870;DHT22;2961;47.702;9.410;2022-09-21T04:37:53;7.80;99.90
5870;DHT22;2961;47.702;9.410;2022-09-21T04:40:20;7.90;99.90
5870;DHT22;2961;47.702;9.410;2022-09-21T04:42:51;7.80;99.90
5870;DHT22;2961;47.702;9.410;2022-09-21T04:45:18;7.80;99.90
5870;DHT22;2961;47.702;9.410;2022-09-21T04:47:45;7.80;99.90
5870;DHT22;2961;47.702;9.410;2022-09-21T04:50:12;7.80;99.90
5870;DHT22;2961;47.702;9.410;2022-09-21T04:52:39;7.80;99.90
5870;DHT22;2961;47.702;9.410;2022-09-21T04:55:06;7.80;99.90
5870;DHT22;2961;47.702;9.410;2022-09-21T04:57:33;7.60;99.90
5870;DHT22;2961;47.702;9.410;2022-09-21T05:00:03;7.60;99.90
5870;DHT22;2961;47.702;9.410;2022-09-21T05:02:29;7.60;99.90
5870;DHT22;2961;47.702;9.410;2022-09-21T05:04:56;7.60;99.90
5870;DHT22;2961;47.702;9.410;2022-09-21T05:07:23;7.60;99.90
5870;DHT22;2961;47.702;9.410;2022-09-21T05:09:50;7.60;99.90
5870;DHT22;2961;47.702;9.410;2022-09-21T05:12:28;7.50;99.90
5870;DHT22;2961;47.702;9.410;2022-09-21T05:14:54;7.50;99.90
5870;DHT22;2961;47.702;9.410;2022-09-21T05:17:23;7.50;99.90
5870;DHT22;2961;47.702;9.410;2022-09-21T05:19:50;7.50;99.90
5870;DHT22;2961;47.702;9.410;2022-09-21T05:22:18;7.50;99.90
5870;DHT22;2961;47.702;9.410;2022-09-21T05:24:44;7.50;99.90
5870;DHT22;2961;47.702;9.410;2022-09-21T05:27:11;7.50;99.90
5870;DHT22;2961;47.702;9.410;2022-09-21T05:29:39;7.50;99.90
5870;DHT22;2961;47.702;9.410;2022-09-21T05:32:12;7.50;99.90
5870;DHT22;2961;47.702;9.410;2022-09-21T05:34:49;7.50;99.90
5870;DHT22;2961;47.702;9.410;2022-09-21T05:37:37;7.50;99.90
5870;DHT22;2961;47.702;9.410;2022-09-21T05:40:07;7.50;99.90
5870;DHT22;2961;47.702;9.410;2022-09-21T05:42:35;7.50;99.90
5870;DHT22;2961;47.702;9.410;2022-09-21T05:45:03;7.50;99.90
5870;DHT22;2961;47.702;9.410;2022-09-21T05:47:37;7.50;99.90
5870;DHT22;2961;47.702;9.410;2022-09-21T05:50:19;7.60;99.90
5870;DHT22;2961;47.702;9.410;2022-09-21T05:52:53;7.70;99.90
5870;DHT22;2961;47.702;9.410;2022-09-21T05:55:28;7.70;99.90
5870;DHT22;2961;47.702;9.410;2022-09-21T05:58:05;7.80;99.90
5870;DHT22;2961;47.702;9.410;2022-09-21T06:00:40;7.80;99.90
5870;DHT22;2961;47.702;9.410;2022-09-21T06:03:30;7.90;99.90
5870;DHT22;2961;47.702;9.410;2022-09-21T06:06:02;8.00;99.90
5870;DHT22;2961;47.702;9.410;2022-09-21T06:08:29;8.00;99.90
5870;DHT22;2961;47.702;9.410;2022-09-21T06:10:56;8.10;99.90
5870;DHT22;2961;47.702;9.410;2022-09-21T06:13:22;8.20;99.90
5870;DHT22;2961;47.702;9.410;2022-09-21T06:15:49;8.30;99.90
5870;DHT22;2961;47.702;9.410;2022-09-21T06:18:16;8.40;99.90
5870;DHT22;2961;47.702;9.410;2022-09-21T06:20:43;8.40;99.90
5870;DHT22;2961;47.702;9.410;2022-09-21T06:23:12;8.50;99.90
5870;DHT22;2961;47.702;9.410;2022-09-21T06:25:39;8.60;99.90
5870;DHT22;2961;47.702;9.410;2022-09-21T06:28:08;8.60;99.90
5870;DHT22;2961;47.702;9.410;2022-09-21T06:30:35;8.70;99.90
5870;DHT22;2961;47.702;9.410;2022-09-21T06:33:04;8.70;99.90
5870;DHT22;2961;47.702;9.410;2022-09-21T06:35:33;8.80;99.90
5870;DHT22;2961;47.702;9.410;2022-09-21T06:38:01;8.80;99.90
5870;DHT22;2961;47.702;9.410;2022-09-21T06:40:31;8.90;99.90
5870;DHT22;2961;47.702;9.410;2022-09-21T06:42:59;9.00;99.90
5870;DHT22;2961;47.702;9.410;2022-09-21T06:45:26;9.00;99.90
5870;DHT22;2961;47.702;9.410;2022-09-21T06:47:53;9.10;99.90
5870;DHT22;2961;47.702;9.410;2022-09-21T06:50:20;9.20;99.90
5870;DHT22;2961;47.702;9.410;2022-09-21T06:52:47;9.20;99.90
5870;DHT22;2961;47.702;9.410;2022-09-21T06:55:14;9.30;99.90
5870;DHT22;2961;47.702;9.410;2022-09-21T06:57:43;9.40;99.90
5870;DHT22;2961;47.702;9.410;2022-09-21T07:00:11;9.50;99.90
5870;DHT22;2961;47.702;9.410;2022-09-21T07:02:41;9.50;99.90
5870;DHT22;2961;47.702;9.410;2022-09-21T07:05:08;9.60;99.90
5870;DHT22;2961;47.702;9.410;2022-09-21T07:07:35;9.70;99.90
5870;DHT22;2961;47.702;9.410;2022-09-21T07:10:03;9.80;99.90
5870;DHT22;2961;47.702;9.410;2022-09-21T07:12:32;9.80;99.90
5870;DHT22;2961;47.702;9.410;2022-09-21T07:15:01;9.90;99.90
5870;DHT22;2961;47.702;9.410;2022-09-21T07:17:30;10.00;99.90
5870;DHT22;2961;47.702;9.410;2022-09-21T07:19:57;10.00;99.90
5870;DHT22;2961;47.702;9.410;2022-09-21T07:22:24;10.10;99.90
5870;DHT22;2961;47.702;9.410;2022-09-21T07:24:51;10.10;99.90
5870;DHT22;2961;47.702;9.410;2022-09-21T07:27:18;10.20;99.90
5870;DHT22;2961;47.702;9.410;2022-09-21T07:29:44;10.20;99.90
5870;DHT22;2961;47.702;9.410;2022-09-21T07:32:13;10.20;99.90
5870;DHT22;2961;47.702;9.410;2022-09-21T07:34:39;10.40;99.90
5870;DHT22;2961;47.702;9.410;2022-09-21T07:37:06;10.40;99.90
5870;DHT22;2961;47.702;9.410;2022-09-21T07:39:33;10.50;99.90
5870;DHT22;2961;47.702;9.410;2022-09-21T07:42:00;10.60;99.90
5870;DHT22;2961;47.702;9.410;2022-09-21T07:44:27;10.70;99.90
5870;DHT22;2961;47.702;9.410;2022-09-21T07:46:54;10.70;99.90
5870;DHT22;2961;47.702;9.410;2022-09-21T07:49:22;10.80;99.90
5870;DHT22;2961;47.702;9.410;2022-09-21T07:51:49;10.90;99.90
5870;DHT22;2961;47.702;9.410;2022-09-21T07:54:16;10.90;99.90
5870;DHT22;2961;47.702;9.410;2022-09-21T07:56:42;11.00;99.90
5870;DHT22;2961;47.702;9.410;2022-09-21T07:59:29;11.00;99.90
5870;DHT22;2961;47.702;9.410;2022-09-21T08:01:57;11.00;99.90
5870;DHT22;2961;47.702;9.410;2022-09-21T08:04:26;11.00;99.90
5870;DHT22;2961;47.702;9.410;2022-09-21T08:06:53;11.00;99.90
5870;DHT22;2961;47.702;9.410;2022-09-21T08:09:20;11.10;99.90
5870;DHT22;2961;47.702;9.410;2022-09-21T08:11:47;11.10;99.90
5870;DHT22;2961;47.702;9.410;2022-09-21T08:14:13;11.10;99.90
5870;DHT22;2961;47.702;9.410;2022-09-21T08:16:44;11.20;99.90
5870;DHT22;2961;47.702;9.410;2022-09-21T08:19:11;11.40;99.90
5870;DHT22;2961;47.702;9.410;2022-09-21T08:21:40;11.40;99.90
5870;DHT22;2961;47.702;9.410;2022-09-21T08:24:07;11.50;99.90
5870;DHT22;2961;47.702;9.410;2022-09-21T08:26:33;11.50;99.90
5870;DHT22;2961;47.702;9.410;2022-09-21T08:29:00;11.60;99.90
5870;DHT22;2961;47.702;9.410;2022-09-21T08:31:27;11.70;99.90
5870;DHT22;2961;47.702;9.410;2022-09-21T08:33:55;11.80;99.90
5870;DHT22;2961;47.702;9.410;2022-09-21T08:36:23;11.90;99.90
5870;DHT22;2961;47.702;9.410;2022-09-21T08:38:51;11.90;99.90
5870;DHT22;2961;47.702;9.410;2022-09-21T08:41:22;12.00;99.90
5870;DHT22;2961;47.702;9.410;2022-09-21T08:43:51;12.20;99.90
5870;DHT22;2961;47.702;9.410;2022-09-21T08:46:21;12.20;99.90
5870;DHT22;2961;47.702;9.410;2022-09-21T08:48:52;12.30;99.90
5870;DHT22;2961;47.702;9.410;2022-09-21T08:51:22;12.40;99.90
5870;DHT22;2961;47.702;9.410;2022-09-21T08:53:52;12.50;99.90
5870;DHT22;2961;47.702;9.410;2022-09-21T08:56:23;12.50;99.90
5870;DHT22;2961;47.702;9.410;2022-09-21T08:58:51;12.60;99.90
5870;DHT22;2961;47.702;9.410;2022-09-21T09:01:32;12.60;99.90
5870;DHT22;2961;47.702;9.410;2022-09-21T09:04:23;12.70;99.90
5870;DHT22;2961;47.702;9.410;2022-09-21T09:06:58;12.70;99.90
5870;DHT22;2961;47.702;9.410;2022-09-21T09:09:50;12.80;99.90
5870;DHT22;2961;47.702;9.410;2022-09-21T09:12:27;12.90;99.90
5870;DHT22;2961;47.702;9.410;2022-09-21T09:15:16;12.90;99.90
5870;DHT22;2961;47.702;9.410;2022-09-21T09:17:51;13.00;99.90
5870;DHT22;2961;47.702;9.410;2022-09-21T09:20:25;13.00;99.90
5870;DHT22;2961;47.702;9.410;2022-09-21T09:23:03;13.10;99.90
5870;DHT22;2961;47.702;9.410;2022-09-21T09:25:35;13.10;99.90
5870;DHT22;2961;47.702;9.410;2022-09-21T09:28:14;13.20;99.90
5870;DHT22;2961;47.702;9.410;2022-09-21T09:30:42;13.30;99.90
5870;DHT22;2961;47.702;9.410;2022-09-21T09:33:15;13.30;99.90
5870;DHT22;2961;47.702;9.410;2022-09-21T09:35:48;13.30;99.90
5870;DHT22;2961;47.702;9.410;2022-09-21T09:38:23;13.50;99.90
5870;DHT22;2961;47.702;9.410;2022-09-21T09:41:14;13.50;99.90
5870;DHT22;2961;47.702;9.410;2022-09-21T09:43:51;13.60;99.90
5870;DHT22;2961;47.702;9.410;2022-09-21T09:46:27;13.70;99.90
5870;DHT22;2961;47.702;9.410;2022-09-21T09:49:11;13.80;99.90
5870;DHT22;2961;47.702;9.410;2022-09-21T09:51:40;13.90;99.90
5870;DHT22;2961;47.702;9.410;2022-09-21T09:54:13;14.00;99.90
5870;DHT22;2961;47.702;9.410;2022-09-21T09:56:41;14.00;99.90
5870;DHT22;2961;47.702;9.410;2022-09-21T09:59:13;14.00;99.90
5870;DHT22;2961;47.702;9.410;2022-09-21T10:01:43;14.00;99.90
5870;DHT22;2961;47.702;9.410;2022-09-21T10:04:12;14.00;99.90
5870;DHT22;2961;47.702;9.410;2022-09-21T10:06:40;14.00;99.90
5870;DHT22;2961;47.702;9.410;2022-09-21T10:09:24;14.10;99.90
5870;DHT22;2961;47.702;9.410;2022-09-21T10:11:55;14.20;99.90
5870;DHT22;2961;47.702;9.410;2022-09-21T10:14:25;14.30;99.90
5870;DHT22;2961;47.702;9.410;2022-09-21T10:16:53;14.30;99.70
5870;DHT22;2961;47.702;9.410;2022-09-21T10:19:23;14.40;99.60
5870;DHT22;2961;47.702;9.410;2022-09-21T10:21:55;14.40;99.90
5870;DHT22;2961;47.702;9.410;2022-09-21T10:24:24;14.40;99.00
5870;DHT22;2961;47.702;9.410;2022-09-21T10:26:54;14.40;98.10
5870;DHT22;2961;47.702;9.410;2022-09-21T10:29:31;14.50;99.70
5870;DHT22;2961;47.702;9.410;2022-09-21T10:31:59;14.50;99.90
5870;DHT22;2961;47.702;9.410;2022-09-21T10:34:28;14.60;99.90
5870;DHT22;2961;47.702;9.410;2022-09-21T10:36:56;14.80;99.90
5870;DHT22;2961;47.702;9.410;2022-09-21T10:39:26;14.80;98.80
5870;DHT22;2961;47.702;9.410;2022-09-21T10:42:03;14.90;98.40
5870;DHT22;2961;47.702;9.410;2022-09-21T10:44:39;14.80;98.50
5870;DHT22;2961;47.702;9.410;2022-09-21T10:47:17;14.80;99.10
5870;DHT22;2961;47.702;9.410;2022-09-21T10:49:47;14.80;99.00
5870;DHT22;2961;47.702;9.410;2022-09-21T10:52:15;14.90;98.50
5870;DHT22;2961;47.702;9.410;2022-09-21T10:54:44;14.90;98.40
5870;DHT22;2961;47.702;9.410;2022-09-21T10:57:17;15.00;99.30
5870;DHT22;2961;47.702;9.410;2022-09-21T10:59:44;15.10;99.70
5870;DHT22;2961;47.702;9.410;2022-09-21T11:02:27;15.10;98.70
5870;DHT22;2961;47.702;9.410;2022-09-21T11:05:01;15.10;98.60
5870;DHT22;2961;47.702;9.410;2022-09-21T11:07:34;15.20;96.80
5870;DHT22;2961;47.702;9.410;2022-09-21T11:10:09;15.10;96.00
5870;DHT22;2961;47.702;9.410;2022-09-21T11:12:51;15.20;97.80
5870;DHT22;2961;47.702;9.410;2022-09-21T11:15:33;15.20;99.70
5870;DHT22;2961;47.702;9.410;2022-09-21T11:18:07;15.30;98.90
5870;DHT22;2961;47.702;9.410;2022-09-21T11:20:43;15.40;98.90
5870;DHT22;2961;47.702;9.410;2022-09-21T11:23:20;15.40;98.60
5870;DHT22;2961;47.702;9.410;2022-09-21T11:25:53;15.40;99.20
5870;DHT22;2961;47.702;9.410;2022-09-21T11:28:25;15.40;99.30
5870;DHT22;2961;47.702;9.410;2022-09-21T11:34:17;15.50;99.40
5870;DHT22;2961;47.702;9.410;2022-09-21T11:36:55;15.70;97.40
5870;DHT22;2961;47.702;9.410;2022-09-21T11:39:38;15.50;95.60
5870;DHT22;2961;47.702;9.410;2022-09-21T11:42:18;15.40;97.80
5870;DHT22;2961;47.702;9.410;2022-09-21T11:44:53;15.40;95.60
5870;DHT22;2961;47.702;9.410;2022-09-21T11:47:43;15.30;95.60
5870;DHT22;2961;47.702;9.410;2022-09-21T11:50:31;15.40;95.50
5870;DHT22;2961;47.702;9.410;2022-09-21T11:56:05;15.40;94.90
5870;DHT22;2961;47.702;9.410;2022-09-21T11:58:41;15.50;97.20
5870;DHT22;2961;47.702;9.410;2022-09-21T12:01:23;15.50;94.30
5870;DHT22;2961;47.702;9.410;2022-09-21T12:04:04;15.50;94.80
5870;DHT22;2961;47.702;9.410;2022-09-21T12:06:45;15.60;94.00
5870;DHT22;2961;47.702;9.410;2022-09-21T12:09:25;15.70;93.20
5870;DHT22;2961;47.702;9.410;2022-09-21T12:12:02;15.60;93.20
5870;DHT22;2961;47.702;9.410;2022-09-21T12:14:38;15.60;93.70
5870;DHT22;2961;47.702;9.410;2022-09-21T12:17:15;15.70;93.40
5870;DHT22;2961;47.702;9.410;2022-09-21T12:19:46;15.70;93.60
5870;DHT22;2961;47.702;9.410;2022-09-21T12:22:23;15.80;93.80
5870;DHT22;2961;47.702;9.410;2022-09-21T12:24:54;15.80;94.40
5870;DHT22;2961;47.702;9.410;2022-09-21T12:27:26;15.80;93.30
5870;DHT22;2961;47.702;9.410;2022-09-21T12:29:57;15.80;93.20
5870;DHT22;2961;47.702;9.410;2022-09-21T12:32:38;15.90;93.20
5870;DHT22;2961;47.702;9.410;2022-09-21T12:35:14;15.90;93.40
5870;DHT22;2961;47.702;9.410;2022-09-21T12:37:45;15.90;93.60
5870;DHT22;2961;47.702;9.410;2022-09-21T12:40:18;15.90;93.20
5870;DHT22;2961;47.702;9.410;2022-09-21T12:42:54;15.90;94.90
5870;DHT22;2961;47.702;9.410;2022-09-21T12:45:27;15.90;93.30
5870;DHT22;2961;47.702;9.410;2022-09-21T12:47:58;15.90;93.10
5870;DHT22;2961;47.702;9.410;2022-09-21T12:50:33;15.90;93.30
5870;DHT22;2961;47.702;9.410;2022-09-21T12:53:01;15.90;93.10
5870;DHT22;2961;47.702;9.410;2022-09-21T12:55:43;16.00;92.80
5870;DHT22;2961;47.702;9.410;2022-09-21T12:58:22;16.00;92.40
5870;DHT22;2961;47.702;9.410;2022-09-21T13:00:59;16.00;93.80
5870;DHT22;2961;47.702;9.410;2022-09-21T13:03:32;16.00;92.90
5870;DHT22;2961;47.702;9.410;2022-09-21T13:06:18;16.00;93.40
5870;DHT22;2961;47.702;9.410;2022-09-21T13:08:49;16.10;93.30
5870;DHT22;2961;47.702;9.410;2022-09-21T13:11:19;16.10;92.60
5870;DHT22;2961;47.702;9.410;2022-09-21T13:13:49;16.20;92.90
5870;DHT22;2961;47.702;9.410;2022-09-21T13:16:24;16.30;93.50
5870;DHT22;2961;47.702;9.410;2022-09-21T13:18:57;16.40;91.90
5870;DHT22;2961;47.702;9.410;2022-09-21T13:21:25;16.70;92.10
5870;DHT22;2961;47.702;9.410;2022-09-21T13:23:55;16.70;91.00
5870;DHT22;2961;47.702;9.410;2022-09-21T13:26:32;16.90;91.30
5870;DHT22;2961;47.702;9.410;2022-09-21T13:29:28;16.80;91.10
5870;DHT22;2961;47.702;9.410;2022-09-21T13:31:55;16.70;91.90
5870;DHT22;2961;47.702;9.410;2022-09-21T13:34:30;16.80;92.20
5870;DHT22;2961;47.702;9.410;2022-09-21T13:37:24;16.70;90.70
5870;DHT22;2961;47.702;9.410;2022-09-21T13:46:47;16.50;90.80
5870;DHT22;2961;47.702;9.410;2022-09-21T13:49:32;16.40;91.30
5870;DHT22;2961;47.702;9.410;2022-09-21T13:52:01;16.40;91.40
5870;DHT22;2961;47.702;9.410;2022-09-21T13:54:32;16.30;91.00
5870;DHT22;2961;47.702;9.410;2022-09-21T13:57:04;16.20;90.50
5870;DHT22;2961;47.702;9.410;2022-09-21T13:59:35;16.10;93.00
5870;DHT22;2961;47.702;9.410;2022-09-21T14:02:27;16.20;92.60
5870;DHT22;2961;47.702;9.410;2022-09-21T14:05:00;16.10;91.50
5870;DHT22;2961;47.702;9.410;2022-09-21T14:07:29;16.10;90.60
5870;DHT22;2961;47.702;9.410;2022-09-21T14:09:59;16.20;90.10
5870;DHT22;2961;47.702;9.410;2022-09-21T14:12:32;16.20;91.50
5870;DHT22;2961;47.702;9.410;2022-09-21T14:15:32;16.10;91.10
5870;DHT22;2961;47.702;9.410;2022-09-21T14:21:16;16.10;90.70
5870;DHT22;2961;47.702;9.410;2022-09-21T14:24:17;16.00;92.60
5870;DHT22;2961;47.702;9.410;2022-09-21T14:26:50;16.00;91.90
5870;DHT22;2961;47.702;9.410;2022-09-21T14:29:22;16.10;91.30
5870;DHT22;2961;47.702;9.410;2022-09-21T14:31:53;16.10;91.40
5870;DHT22;2961;47.702;9.410;2022-09-21T14:34:24;16.00;93.30
5870;DHT22;2961;47.702;9.410;2022-09-21T14:36:55;16.00;94.00
5870;DHT22;2961;47.702;9.410;2022-09-21T14:39:27;16.10;92.70
5870;DHT22;2961;47.702;9.410;2022-09-21T14:42:00;16.00;91.70
5870;DHT22;2961;47.702;9.410;2022-09-21T14:44:29;16.00;92.40
5870;DHT22;2961;47.702;9.410;2022-09-21T14:47:26;15.90;92.00
5870;DHT22;2961;47.702;9.410;2022-09-21T14:50:20;15.90;92.30
5870;DHT22;2961;47.702;9.410;2022-09-21T14:53:21;15.90;91.80
5870;DHT22;2961;47.702;9.410;2022-09-21T15:01:40;15.80;93.20
5870;DHT22;2961;47.702;9.410;2022-09-21T15:04:28;15.80;91.90
5870;DHT22;2961;47.702;9.410;2022-09-21T15:07:06;15.70;93.40
5870;DHT22;2961;47.702;9.410;2022-09-21T15:10:14;15.80;92.50
5870;DHT22;2961;47.702;9.410;2022-09-21T15:13:13;15.70;92.60
5870;DHT22;2961;47.702;9.410;2022-09-21T15:15:57;15.70;92.40
5870;DHT22;2961;47.702;9.410;2022-09-21T15:18:25;15.70;91.60
5870;DHT22;2961;47.702;9.410;2022-09-21T15:20:56;15.60;91.60
5870;DHT22;2961;47.702;9.410;2022-09-21T15:23:27;15.50;91.70
5870;DHT22;2961;47.702;9.410;2022-09-21T15:26:00;15.50;92.10
5870;DHT22;2961;47.702;9.410;2022-09-21T15:28:33;15.40;91.80
5870;DHT22;2961;47.702;9.410;2022-09-21T15:31:01;15.40;93.80
5870;DHT22;2961;47.702;9.410;2022-09-21T15:33:28;15.40;92.10
5870;DHT22;2961;47.702;9.410;2022-09-21T15:35:59;15.30;91.00
5870;DHT22;2961;47.702;9.410;2022-09-21T15:38:28;15.30;91.90
5870;DHT22;2961;47.702;9.410;2022-09-21T15:40:55;15.20;92.40
5870;DHT22;2961;47.702;9.410;2022-09-21T15:43:23;15.20;92.30
5870;DHT22;2961;47.702;9.410;2022-09-21T15:45:52;15.20;92.90
5870;DHT22;2961;47.702;9.410;2022-09-21T15:48:20;15.20;93.60
5870;DHT22;2961;47.702;9.410;2022-09-21T15:50:51;15.20;92.70
5870;DHT22;2961;47.702;9.410;2022-09-21T15:53:21;15.10;95.30
5870;DHT22;2961;47.702;9.410;2022-09-21T15:55:48;15.10;93.20
5870;DHT22;2961;47.702;9.410;2022-09-21T15:58:26;15.10;92.20
5870;DHT22;2961;47.702;9.410;2022-09-21T16:00:56;15.00;93.30
5870;DHT22;2961;47.702;9.410;2022-09-21T16:03:24;14.90;93.20
5870;DHT22;2961;47.702;9.410;2022-09-21T16:05:53;14.90;92.70
5870;DHT22;2961;47.702;9.410;2022-09-21T16:08:27;14.80;93.50
5870;DHT22;2961;47.702;9.410;2022-09-21T16:11:12;14.80;94.10
5870;DHT22;2961;47.702;9.410;2022-09-21T16:13:41;14.70;94.20
5870;DHT22;2961;47.702;9.410;2022-09-21T16:16:26;14.70;93.30
5870;DHT22;2961;47.702;9.410;2022-09-21T16:18:54;14.60;93.30
5870;DHT22;2961;47.702;9.410;2022-09-21T16:21:23;14.60;93.70
5870;DHT22;2961;47.702;9.410;2022-09-21T16:23:53;14.50;93.20
5870;DHT22;2961;47.702;9.410;2022-09-21T16:26:24;14.50;94.30
5870;DHT22;2961;47.702;9.410;2022-09-21T16:29:19;14.40;94.30
5870;DHT22;2961;47.702;9.410;2022-09-21T16:31:48;14.30;94.60
5870;DHT22;2961;47.702;9.410;2022-09-21T16:34:21;14.20;95.20
5870;DHT22;2961;47.702;9.410;2022-09-21T16:36:49;14.20;95.00
5870;DHT22;2961;47.702;9.410;2022-09-21T16:39:17;14.00;95.00
5870;DHT22;2961;47.702;9.410;2022-09-21T16:41:50;14.00;96.50
5870;DHT22;2961;47.702;9.410;2022-09-21T16:44:20;13.80;96.10
5870;DHT22;2961;47.702;9.410;2022-09-21T16:46:55;13.80;97.60
5870;DHT22;2961;47.702;9.410;2022-09-21T16:49:23;13.70;97.70
5870;DHT22;2961;47.702;9.410;2022-09-21T16:51:52;13.70;95.70
5870;DHT22;2961;47.702;9.410;2022-09-21T16:54:21;13.70;95.30
5870;DHT22;2961;47.702;9.410;2022-09-21T16:56:49;13.60;95.70
5870;DHT22;2961;47.702;9.410;2022-09-21T16:59:17;13.60;96.00
5870;DHT22;2961;47.702;9.410;2022-09-21T17:01:48;13.50;96.90
5870;DHT22;2961;47.702;9.410;2022-09-21T17:04:16;13.40;96.90